sensor_id;sensor_type;location;lat;lon;timestamp;pressure;altitude;pressure_sealevel;temperature;humidity
60015;BME280;45867;52.480;6.056;2023-08-24T00:00:25;101966.00;;;14.88;100.00
60015;BME280;45867;52.480;6.056;2023-08-24T00:02:51;101969.19;;;14.85;100.00
60015;BME280;45867;52.480;6.056;2023-08-24T00:05:18;101964.41;;;14.82;100.00
60015;BME280;45867;52.480;6.056;2023-08-24T00:07:44;101958.25;;;14.82;100.00
60015;BME280;45867;52.480;6.056;2023-08-24T00:10:11;101931.31;;;14.68;100.00
60015;BME280;45867;52.480;6.056;2023-08-24T00:12:37;101940.91;;;14.74;100.00
60015;BME280;45867;52.480;6.056;2023-08-24T00:15:04;101938.50;;;14.73;100.00
60015;BME280;45867;52.480;6.056;2023-08-24T00:17:31;101944.63;;;14.88;100.00
60015;BME280;45867;52.480;6.056;2023-08-24T00:19:57;101945.72;;;14.87;100.00
60015;BME280;45867;52.480;6.056;2023-08-24T00:22:24;101940.91;;;14.90;100.00
60015;BME280;45867;52.480;6.056;2023-08-24T00:24:50;101941.19;;;15.03;100.00
60015;BME280;45867;52.480;6.056;2023-08-24T00:27:17;101931.28;;;14.99;100.00
60015;BME280;45867;52.480;6.056;2023-08-24T00:29:43;101929.41;;;15.04;100.00
60015;BME280;45867;52.480;6.056;2023-08-24T00:32:10;101916.84;;;15.15;100.00
60015;BME280;45867;52.480;6.056;2023-08-24T00:34:39;101913.34;;;15.30;100.00
60015;BME280;45867;52.480;6.056;2023-08-24T00:37:05;101936.03;;;15.43;100.00
60015;BME280;45867;52.480;6.056;2023-08-24T00:39:32;101934.94;;;15.49;100.00
60015;BME280;45867;52.480;6.056;2023-08-24T00:41:58;101933.59;;;15.51;100.00
60015;BME280;45867;52.480;6.056;2023-08-24T00:44:25;101940.28;;;15.49;100.00
60015;BME280;45867;52.480;6.056;2023-08-24T00:46:52;101942.44;;;15.47;100.00
60015;BME280;45867;52.480;6.056;2023-08-24T00:49:19;101944.00;;;15.53;100.00
60015;BME280;45867;52.480;6.056;2023-08-24T00:51:46;101929.31;;;15.50;100.00
60015;BME280;45867;52.480;6.056;2023-08-24T00:54:12;101916.22;;;15.49;100.00
60015;BME280;45867;52.480;6.056;2023-08-24T00:56:40;101910.88;;;15.54;100.00
60015;BME280;45867;52.480;6.056;2023-08-24T00:59:07;101911.09;;;15.68;100.00
60015;BME280;45867;52.480;6.056;2023-08-24T01:01:33;101896.94;;;15.67;100.00
60015;BME280;45867;52.480;6.056;2023-08-24T01:04:00;101891.84;;;15.71;100.00
60015;BME280;45867;52.480;6.056;2023-08-24T01:06:26;101897.19;;;15.76;100.00
60015;BME280;45867;52.480;6.056;2023-08-24T01:08:53;101890.81;;;15.72;100.00
60015;BME280;45867;52.480;6.056;2023-08-24T01:16:45;101895.00;;;15.88;100.00
60015;BME280;45867;52.480;6.056;2023-08-24T01:22:01;101896.03;;;15.92;100.00
60015;BME280;45867;52.480;6.056;2023-08-24T01:24:38;101893.34;;;15.97;100.00
60015;BME280;45867;52.480;6.056;2023-08-24T01:27:06;101902.44;;;15.96;100.00
60015;BME280;45867;52.480;6.056;2023-08-24T01:29:34;101896.81;;;15.98;100.00
60015;BME280;45867;52.480;6.056;2023-08-24T01:32:00;101899.50;;;15.93;100.00
60015;BME280;45867;52.480;6.056;2023-08-24T01:34:27;101897.06;;;16.02;100.00
60015;BME280;45867;52.480;6.056;2023-08-24T01:36:53;101896.56;;;15.94;100.00
60015;BME280;45867;52.480;6.056;2023-08-24T01:39:31;101905.88;;;16.02;100.00
60015;BME280;45867;52.480;6.056;2023-08-24T01:42:03;101900.03;;;15.95;100.00
60015;BME280;45867;52.480;6.056;2023-08-24T01:44:35;101899.25;;;15.94;100.00
60015;BME280;45867;52.480;6.056;2023-08-24T01:47:04;101868.28;;;15.83;100.00
60015;BME280;45867;52.480;6.056;2023-08-24T01:49:33;101873.09;;;15.86;100.00
60015;BME280;45867;52.480;6.056;2023-08-24T01:52:00;101869.84;;;15.89;100.00
60015;BME280;45867;52.480;6.056;2023-08-24T01:54:28;101893.88;;;16.00;100.00
60015;BME280;45867;52.480;6.056;2023-08-24T01:56:55;101896.53;;;16.00;100.00
60015;BME280;45867;52.480;6.056;2023-08-24T01:59:22;101912.84;;;15.98;100.00
60015;BME280;45867;52.480;6.056;2023-08-24T02:01:48;101890.47;;;15.84;100.00
60015;BME280;45867;52.480;6.056;2023-08-24T02:04:14;101898.22;;;15.85;100.00
60015;BME280;45867;52.480;6.056;2023-08-24T02:06:41;101894.22;;;15.83;100.00
60015;BME280;45867;52.480;6.056;2023-08-24T02:09:07;101888.59;;;15.84;100.00
60015;BME280;45867;52.480;6.056;2023-08-24T02:11:34;101893.34;;;15.92;100.00
60015;BME280;45867;52.480;6.056;2023-08-24T02:14:00;101896.00;;;15.97;100.00
60015;BME280;45867;52.480;6.056;2023-08-24T02:16:26;101889.34;;;15.95;100.00
60015;BME280;45867;52.480;6.056;2023-08-24T02:18:53;101909.34;;;16.03;100.00
60015;BME280;45867;52.480;6.056;2023-08-24T02:21:19;101917.09;;;16.04;100.00
60015;BME280;45867;52.480;6.056;2023-08-24T02:23:46;101908.25;;;16.04;100.00
60015;BME280;45867;52.480;6.056;2023-08-24T02:26:12;101886.84;;;16.09;100.00
60015;BME280;45867;52.480;6.056;2023-08-24T02:28:39;101878.25;;;16.17;100.00
60015;BME280;45867;52.480;6.056;2023-08-24T02:31:05;101867.84;;;16.15;100.00
60015;BME280;45867;52.480;6.056;2023-08-24T02:33:32;101867.31;;;16.13;100.00
60015;BME280;45867;52.480;6.056;2023-08-24T02:35:59;101869.69;;;16.15;100.00
60015;BME280;45867;52.480;6.056;2023-08-24T02:38:25;101844.41;;;16.02;100.00
60015;BME280;45867;52.480;6.056;2023-08-24T02:41:05;101868.59;;;16.21;100.00
60015;BME280;45867;52.480;6.056;2023-08-24T02:43:33;101864.13;;;16.06;100.00
60015;BME280;45867;52.480;6.056;2023-08-24T02:46:04;101873.50;;;16.04;100.00
60015;BME280;45867;52.480;6.056;2023-08-24T02:48:32;101874.84;;;16.01;100.00
60015;BME280;45867;52.480;6.056;2023-08-24T02:50:59;101859.63;;;16.02;100.00
60015;BME280;45867;52.480;6.056;2023-08-24T02:53:27;101871.13;;;16.02;100.00
60015;BME280;45867;52.480;6.056;2023-08-24T02:55:53;101856.66;;;16.03;100.00
60015;BME280;45867;52.480;6.056;2023-08-24T02:58:20;101865.78;;;16.02;100.00
60015;BME280;45867;52.480;6.056;2023-08-24T03:00:46;101855.28;;;16.11;100.00
60015;BME280;45867;52.480;6.056;2023-08-24T03:03:13;101851.03;;;16.10;100.00
60015;BME280;45867;52.480;6.056;2023-08-24T03:05:40;101843.59;;;16.02;100.00
60015;BME280;45867;52.480;6.056;2023-08-24T03:08:07;101844.63;;;16.06;100.00
60015;BME280;45867;52.480;6.056;2023-08-24T03:10:36;101849.41;;;16.09;100.00
60015;BME280;45867;52.480;6.056;2023-08-24T03:13:03;101851.28;;;16.08;100.00
60015;BME280;45867;52.480;6.056;2023-08-24T03:15:29;101847.31;;;16.06;100.00
60015;BME280;45867;52.480;6.056;2023-08-24T03:17:56;101854.00;;;16.03;100.00
60015;BME280;45867;52.480;6.056;2023-08-24T03:20:22;101858.22;;;16.09;100.00
60015;BME280;45867;52.480;6.056;2023-08-24T03:22:49;101853.78;;;15.94;100.00
60015;BME280;45867;52.480;6.056;2023-08-24T03:25:15;101864.72;;;15.98;100.00
60015;BME280;45867;52.480;6.056;2023-08-24T03:27:41;101861.56;;;15.91;100.00
60015;BME280;45867;52.480;6.056;2023-08-24T03:30:08;101856.78;;;15.88;100.00
60015;BME280;45867;52.480;6.056;2023-08-24T03:32:35;101846.63;;;15.85;100.00
60015;BME280;45867;52.480;6.056;2023-08-24T03:35:01;101846.69;;;15.80;100.00
60015;BME280;45867;52.480;6.056;2023-08-24T03:37:28;101836.81;;;15.75;100.00
60015;BME280;45867;52.480;6.056;2023-08-24T03:39:54;101810.41;;;15.63;100.00
60015;BME280;45867;52.480;6.056;2023-08-24T03:42:21;101815.19;;;15.66;100.00
60015;BME280;45867;52.480;6.056;2023-08-24T03:44:47;101800.56;;;15.53;100.00
60015;BME280;45867;52.480;6.056;2023-08-24T03:47:14;101812.53;;;15.61;100.00
60015;BME280;45867;52.480;6.056;2023-08-24T03:49:43;101822.69;;;15.59;100.00
60015;BME280;45867;52.480;6.056;2023-08-24T03:52:10;101793.13;;;15.45;100.00
60015;BME280;45867;52.480;6.056;2023-08-24T03:54:40;101801.66;;;15.47;100.00
60015;BME280;45867;52.480;6.056;2023-08-24T03:57:06;101801.13;;;15.45;100.00
60015;BME280;45867;52.480;6.056;2023-08-24T03:59:32;101795.28;;;15.38;100.00
60015;BME280;45867;52.480;6.056;2023-08-24T04:02:00;101804.59;;;15.41;100.00
60015;BME280;45867;52.480;6.056;2023-08-24T04:04:27;101789.47;;;15.21;100.00
60015;BME280;45867;52.480;6.056;2023-08-24T04:06:53;101802.28;;;15.24;100.00
60015;BME280;45867;52.480;6.056;2023-08-24T04:09:20;101800.69;;;15.28;100.00
60015;BME280;45867;52.480;6.056;2023-08-24T04:11:46;101767.38;;;15.05;100.00
60015;BME280;45867;52.480;6.056;2023-08-24T04:14:13;101783.91;;;15.12;100.00
60015;BME280;45867;52.480;6.056;2023-08-24T04:16:39;101792.47;;;15.09;100.00
60015;BME280;45867;52.480;6.056;2023-08-24T04:19:06;101798.88;;;15.08;100.00
60015;BME280;45867;52.480;6.056;2023-08-24T04:21:32;101810.34;;;15.08;100.00
60015;BME280;45867;52.480;6.056;2023-08-24T04:23:59;101789.31;;;14.92;100.00
60015;BME280;45867;52.480;6.056;2023-08-24T04:26:25;101802.38;;;14.98;100.00
60015;BME280;45867;52.480;6.056;2023-08-24T04:28:52;101805.84;;;14.99;100.00
60015;BME280;45867;52.480;6.056;2023-08-24T04:31:18;101809.59;;;14.98;100.00
60015;BME280;45867;52.480;6.056;2023-08-24T04:33:48;101801.56;;;15.03;100.00
60015;BME280;45867;52.480;6.056;2023-08-24T04:36:14;101809.31;;;14.94;100.00
60015;BME280;45867;52.480;6.056;2023-08-24T04:38:41;101790.94;;;14.93;100.00
60015;BME280;45867;52.480;6.056;2023-08-24T04:41:08;101808.22;;;15.00;100.00
60015;BME280;45867;52.480;6.056;2023-08-24T04:43:35;101812.53;;;14.96;100.00
60015;BME280;45867;52.480;6.056;2023-08-24T04:46:02;101808.53;;;14.94;100.00
60015;BME280;45867;52.480;6.056;2023-08-24T04:48:28;101809.31;;;14.94;100.00
60015;BME280;45867;52.480;6.056;2023-08-24T04:50:55;101811.72;;;14.96;100.00
60015;BME280;45867;52.480;6.056;2023-08-24T04:53:22;101809.88;;;14.86;100.00
60015;BME280;45867;52.480;6.056;2023-08-24T04:55:48;101807.75;;;14.88;100.00
60015;BME280;45867;52.480;6.056;2023-08-24T04:58:15;101798.16;;;14.87;100.00
60015;BME280;45867;52.480;6.056;2023-08-24T05:00:42;101811.19;;;14.99;100.00
60015;BME280;45867;52.480;6.056;2023-08-24T05:03:08;101815.44;;;15.05;100.00
60015;BME280;45867;52.480;6.056;2023-08-24T05:05:37;101807.97;;;15.02;100.00
60015;BME280;45867;52.480;6.056;2023-08-24T05:08:05;101793.84;;;14.91;100.00
60015;BME280;45867;52.480;6.056;2023-08-24T05:10:34;101801.59;;;14.98;100.00
60015;BME280;45867;52.480;6.056;2023-08-24T05:13:01;101801.84;;;14.96;100.00
60015;BME280;45867;52.480;6.056;2023-08-24T05:15:27;101813.31;;;15.02;100.00
60015;BME280;45867;52.480;6.056;2023-08-24T05:17:54;101799.69;;;15.03;100.00
60015;BME280;45867;52.480;6.056;2023-08-24T05:20:22;101808.97;;;15.16;100.00
60015;BME280;45867;52.480;6.056;2023-08-24T05:22:48;101802.84;;;15.21;100.00
60015;BME280;45867;52.480;6.056;2023-08-24T05:25:16;101807.63;;;15.19;100.00
60015;BME280;45867;52.480;6.056;2023-08-24T05:27:43;101804.16;;;15.23;100.00
60015;BME280;45867;52.480;6.056;2023-08-24T05:30:10;101798.25;;;15.31;100.00
60015;BME280;45867;52.480;6.056;2023-08-24T05:32:36;101794.00;;;15.30;100.00
60015;BME280;45867;52.480;6.056;2023-08-24T05:35:03;101788.91;;;15.34;100.00
60015;BME280;45867;52.480;6.056;2023-08-24T05:37:30;101780.31;;;15.42;100.00
60015;BME280;45867;52.480;6.056;2023-08-24T05:39:56;101778.97;;;15.45;100.00
60015;BME280;45867;52.480;6.056;2023-08-24T05:42:23;101778.66;;;15.51;100.00
60015;BME280;45867;52.480;6.056;2023-08-24T05:44:49;101765.25;;;15.57;100.00
60015;BME280;45867;52.480;6.056;2023-08-24T05:47:16;101772.69;;;15.65;100.00
60015;BME280;45867;52.480;6.056;2023-08-24T05:49:42;101779.59;;;15.76;100.00
60015;BME280;45867;52.480;6.056;2023-08-24T05:52:09;101777.97;;;15.80;100.00
60015;BME280;45867;52.480;6.056;2023-08-24T05:54:38;101776.03;;;15.91;100.00
60015;BME280;45867;52.480;6.056;2023-08-24T05:57:05;101774.31;;;16.05;100.00
60015;BME280;45867;52.480;6.056;2023-08-24T05:59:34;101762.59;;;16.30;100.00
60015;BME280;45867;52.480;6.056;2023-08-24T06:02:01;101767.69;;;16.56;100.00
60015;BME280;45867;52.480;6.056;2023-08-24T06:04:27;101771.72;;;17.06;100.00
60015;BME280;45867;52.480;6.056;2023-08-24T06:06:54;101785.91;;;17.50;100.00
60015;BME280;45867;52.480;6.056;2023-08-24T06:09:20;101785.06;;;17.92;100.00
60015;BME280;45867;52.480;6.056;2023-08-24T06:11:47;101781.75;;;18.14;100.00
60015;BME280;45867;52.480;6.056;2023-08-24T06:14:13;101782.59;;;18.29;100.00
60015;BME280;45867;52.480;6.056;2023-08-24T06:16:39;101766.72;;;18.46;100.00
60015;BME280;45867;52.480;6.056;2023-08-24T06:19:06;101764.63;;;18.71;100.00
60015;BME280;45867;52.480;6.056;2023-08-24T06:21:32;101759.78;;;19.14;100.00
60015;BME280;45867;52.480;6.056;2023-08-24T06:23:59;101761.34;;;19.29;100.00
60015;BME280;45867;52.480;6.056;2023-08-24T06:26:25;101760.38;;;19.47;100.00
60015;BME280;45867;52.480;6.056;2023-08-24T06:28:54;101724.56;;;19.74;100.00
60015;BME280;45867;52.480;6.056;2023-08-24T06:42:54;101714.00;;;20.40;100.00
60015;BME280;45867;52.480;6.056;2023-08-24T06:56:33;101717.84;;;21.05;100.00
60015;BME280;45867;52.480;6.056;2023-08-24T07:20:45;101683.47;;;23.08;100.00
60015;BME280;45867;52.480;6.056;2023-08-24T08:09:26;101470.91;;;27.44;100.00
60015;BME280;45867;52.480;6.056;2023-08-24T08:12:19;101461.06;;;26.90;100.00
60015;BME280;45867;52.480;6.056;2023-08-24T08:15:35;101465.78;;;27.16;100.00
60015;BME280;45867;52.480;6.056;2023-08-24T08:32:27;101559.47;;;29.53;100.00
60015;BME280;45867;52.480;6.056;2023-08-24T09:04:44;101528.44;;;30.48;100.00
60015;BME280;45867;52.480;6.056;2023-08-24T09:07:48;101522.88;;;30.27;100.00
60015;BME280;45867;52.480;6.056;2023-08-24T09:14:07;101559.50;;;29.56;100.00
60015;BME280;45867;52.480;6.056;2023-08-24T09:23:53;101516.81;;;28.93;100.00
60015;BME280;45867;52.480;6.056;2023-08-24T09:48:49;101443.31;;;28.66;100.00
60015;BME280;45867;52.480;6.056;2023-08-24T09:51:52;101446.00;;;28.63;100.00
60015;BME280;45867;52.480;6.056;2023-08-24T09:54:56;101411.97;;;27.82;100.00
60015;BME280;45867;52.480;6.056;2023-08-24T10:01:46;101424.75;;;28.08;100.00
60015;BME280;45867;52.480;6.056;2023-08-24T10:29:34;101320.97;;;26.50;100.00
60015;BME280;45867;52.480;6.056;2023-08-24T10:32:02;101314.03;;;26.10;100.00
60015;BME280;45867;52.480;6.056;2023-08-24T10:34:29;101326.84;;;26.09;100.00
60015;BME280;45867;52.480;6.056;2023-08-24T10:36:55;101298.22;;;25.93;100.00
60015;BME280;45867;52.480;6.056;2023-08-24T10:39:27;101309.91;;;25.97;100.00
60015;BME280;45867;52.480;6.056;2023-08-24T10:41:54;101325.88;;;26.21;100.00
60015;BME280;45867;52.480;6.056;2023-08-24T10:44:47;101316.06;;;26.36;100.00
60015;BME280;45867;52.480;6.056;2023-08-24T10:47:15;101315.59;;;26.53;100.00
60015;BME280;45867;52.480;6.056;2023-08-24T10:49:57;101323.31;;;26.74;100.00
60015;BME280;45867;52.480;6.056;2023-08-24T10:52:35;101330.53;;;26.90;100.00
60015;BME280;45867;52.480;6.056;2023-08-24T10:55:03;101339.38;;;26.83;100.00
60015;BME280;45867;52.480;6.056;2023-08-24T10:57:39;101321.69;;;26.93;100.00
60015;BME280;45867;52.480;6.056;2023-08-24T11:00:08;101328.41;;;27.02;100.00
60015;BME280;45867;52.480;6.056;2023-08-24T11:02:46;101328.38;;;26.99;100.00
60015;BME280;45867;52.480;6.056;2023-08-24T11:05:29;101309.69;;;26.97;100.00
60015;BME280;45867;52.480;6.056;2023-08-24T11:07:58;101280.06;;;26.92;100.00
60015;BME280;45867;52.480;6.056;2023-08-24T11:10:31;101292.72;;;27.08;100.00
60015;BME280;45867;52.480;6.056;2023-08-24T11:18:20;101303.72;;;26.88;100.00
60015;BME280;45867;52.480;6.056;2023-08-24T11:20:49;101298.84;;;26.74;100.00
60015;BME280;45867;52.480;6.056;2023-08-24T11:23:16;101286.22;;;26.63;100.00
60015;BME280;45867;52.480;6.056;2023-08-24T11:25:45;101286.34;;;26.47;100.00
60015;BME280;45867;52.480;6.056;2023-08-24T11:28:16;101287.78;;;26.60;100.00
60015;BME280;45867;52.480;6.056;2023-08-24T11:30:43;101270.47;;;26.72;100.00
60015;BME280;45867;52.480;6.056;2023-08-24T11:33:11;101293.41;;;26.74;100.00
60015;BME280;45867;52.480;6.056;2023-08-24T11:35:39;101295.06;;;26.56;100.00
60015;BME280;45867;52.480;6.056;2023-08-24T11:38:06;101285.94;;;26.68;100.00
60015;BME280;45867;52.480;6.056;2023-08-24T11:40:32;101229.91;;;26.90;100.00
60015;BME280;45867;52.480;6.056;2023-08-24T11:42:59;101247.44;;;27.19;100.00
60015;BME280;45867;52.480;6.056;2023-08-24T11:45:33;101277.47;;;27.60;100.00
60015;BME280;45867;52.480;6.056;2023-08-24T11:48:00;101287.88;;;27.51;100.00
60015;BME280;45867;52.480;6.056;2023-08-24T11:50:27;101284.09;;;27.29;100.00
60015;BME280;45867;52.480;6.056;2023-08-24T11:52:54;101260.09;;;27.08;100.00
60015;BME280;45867;52.480;6.056;2023-08-24T11:55:21;101246.03;;;26.75;100.00
60015;BME280;45867;52.480;6.056;2023-08-24T11:57:48;101242.03;;;26.66;100.00
60015;BME280;45867;52.480;6.056;2023-08-24T12:00:15;101209.81;;;26.68;100.00
60015;BME280;45867;52.480;6.056;2023-08-24T12:02:43;101175.28;;;26.68;100.00
60015;BME280;45867;52.480;6.056;2023-08-24T12:05:23;101151.81;;;26.87;100.00
60015;BME280;45867;52.480;6.056;2023-08-24T12:07:52;101133.81;;;27.09;100.00
60015;BME280;45867;52.480;6.056;2023-08-24T12:10:20;101131.13;;;27.12;100.00
60015;BME280;45867;52.480;6.056;2023-08-24T12:12:47;101149.81;;;27.48;100.00
60015;BME280;45867;52.480;6.056;2023-08-24T12:15:20;101157.16;;;27.43;100.00
60015;BME280;45867;52.480;6.056;2023-08-24T12:17:47;101159.75;;;27.74;100.00
60015;BME280;45867;52.480;6.056;2023-08-24T12:20:21;101191.25;;;28.12;100.00
60015;BME280;45867;52.480;6.056;2023-08-24T12:25:18;101199.41;;;28.12;100.00
60015;BME280;45867;52.480;6.056;2023-08-24T12:27:45;101197.19;;;28.25;100.00
60015;BME280;45867;52.480;6.056;2023-08-24T12:30:11;101197.69;;;28.38;100.00
60015;BME280;45867;52.480;6.056;2023-08-24T12:32:45;101228.25;;;28.17;100.00
60015;BME280;45867;52.480;6.056;2023-08-24T12:35:13;101215.66;;;28.01;100.00
60015;BME280;45867;52.480;6.056;2023-08-24T12:37:40;101261.72;;;28.14;100.00
60015;BME280;45867;52.480;6.056;2023-08-24T12:40:07;101246.38;;;27.98;100.00
60015;BME280;45867;52.480;6.056;2023-08-24T12:42:33;101249.25;;;28.13;100.00
60015;BME280;45867;52.480;6.056;2023-08-24T12:45:04;101237.31;;;28.31;100.00
60015;BME280;45867;52.480;6.056;2023-08-24T12:47:30;101273.88;;;28.71;100.00
60015;BME280;45867;52.480;6.056;2023-08-24T12:49:56;101253.22;;;28.70;100.00
60015;BME280;45867;52.480;6.056;2023-08-24T12:52:23;101289.75;;;29.14;100.00
60015;BME280;45867;52.480;6.056;2023-08-24T12:54:49;101277.09;;;28.91;100.00
60015;BME280;45867;52.480;6.056;2023-08-24T12:57:16;101275.72;;;29.19;100.00
60015;BME280;45867;52.480;6.056;2023-08-24T12:59:42;101269.06;;;29.13;100.00
60015;BME280;45867;52.480;6.056;2023-08-24T13:02:08;101261.66;;;29.10;100.00
60015;BME280;45867;52.480;6.056;2023-08-24T13:04:38;101247.41;;;28.75;100.00
60015;BME280;45867;52.480;6.056;2023-08-24T13:07:04;101253.22;;;28.70;100.00
60015;BME280;45867;52.480;6.056;2023-08-24T13:09:31;101237.88;;;28.48;100.00
60015;BME280;45867;52.480;6.056;2023-08-24T13:11:57;101216.25;;;28.25;100.00
60015;BME280;45867;52.480;6.056;2023-08-24T13:14:24;101216.06;;;28.00;100.00
60015;BME280;45867;52.480;6.056;2023-08-24T13:16:50;101212.03;;;27.83;100.00
60015;BME280;45867;52.480;6.056;2023-08-24T13:19:16;101187.72;;;27.67;100.00
60015;BME280;45867;52.480;6.056;2023-08-24T13:21:43;101188.81;;;28.00;100.00
60015;BME280;45867;52.480;6.056;2023-08-24T13:24:09;101159.97;;;27.95;100.00
60015;BME280;45867;52.480;6.056;2023-08-24T13:26:36;101130.09;;;28.02;100.00
60015;BME280;45867;52.480;6.056;2023-08-24T13:29:04;101134.00;;;28.08;100.00
60015;BME280;45867;52.480;6.056;2023-08-24T13:31:31;101063.78;;;27.80;100.00
60015;BME280;45867;52.480;6.056;2023-08-24T13:33:57;101048.09;;;27.70;100.00
60015;BME280;45867;52.480;6.056;2023-08-24T13:36:23;101042.78;;;27.84;100.00
60015;BME280;45867;52.480;6.056;2023-08-24T13:38:50;101063.44;;;27.89;100.00
60015;BME280;45867;52.480;6.056;2023-08-24T13:41:16;101070.78;;;27.81;100.00
60015;BME280;45867;52.480;6.056;2023-08-24T13:43:43;101046.47;;;27.58;100.00
60015;BME280;45867;52.480;6.056;2023-08-24T13:46:09;101003.84;;;27.29;100.00
60015;BME280;45867;52.480;6.056;2023-08-24T13:48:36;100999.63;;;27.38;100.00
60015;BME280;45867;52.480;6.056;2023-08-24T13:51:02;100995.97;;;27.16;100.00
60015;BME280;45867;52.480;6.056;2023-08-24T13:53:29;100971.25;;;26.95;100.00
60015;BME280;45867;52.480;6.056;2023-08-24T13:55:55;100973.09;;;26.84;100.00
60015;BME280;45867;52.480;6.056;2023-08-24T13:58:22;100958.16;;;26.67;100.00
60015;BME280;45867;52.480;6.056;2023-08-24T14:00:55;100927.00;;;26.57;100.00
60015;BME280;45867;52.480;6.056;2023-08-24T14:03:21;100893.59;;;26.56;100.00
60015;BME280;45867;52.480;6.056;2023-08-24T14:05:48;100882.66;;;26.49;100.00
60015;BME280;45867;52.480;6.056;2023-08-24T14:08:14;100909.09;;;26.52;100.00
60015;BME280;45867;52.480;6.056;2023-08-24T14:10:41;100891.47;;;26.39;100.00
60015;BME280;45867;52.480;6.056;2023-08-24T14:13:07;100902.63;;;26.30;100.00
60015;BME280;45867;52.480;6.056;2023-08-24T14:15:33;100888.06;;;26.12;100.00
60015;BME280;45867;52.480;6.056;2023-08-24T14:18:00;100838.09;;;26.20;100.00
60015;BME280;45867;52.480;6.056;2023-08-24T14:27:48;100881.38;;;26.40;100.00
60015;BME280;45867;52.480;6.056;2023-08-24T14:45:22;101001.69;;;27.08;100.00
60015;BME280;45867;52.480;6.056;2023-08-24T15:01:56;100974.19;;;26.79;100.00
60015;BME280;45867;52.480;6.056;2023-08-24T15:04:22;100962.75;;;26.59;100.00
60015;BME280;45867;52.480;6.056;2023-08-24T15:06:49;100946.00;;;26.53;100.00
60015;BME280;45867;52.480;6.056;2023-08-24T15:09:15;100933.03;;;26.77;100.00
60015;BME280;45867;52.480;6.056;2023-08-24T15:11:42;100946.69;;;26.84;100.00
60015;BME280;45867;52.480;6.056;2023-08-24T15:14:08;100948.06;;;26.67;100.00
60015;BME280;45867;52.480;6.056;2023-08-24T15:16:34;100923.78;;;26.48;100.00
60015;BME280;45867;52.480;6.056;2023-08-24T15:19:01;100945.50;;;26.48;100.00
60015;BME280;45867;52.480;6.056;2023-08-24T15:21:27;100930.72;;;26.45;100.00
60015;BME280;45867;52.480;6.056;2023-08-24T15:23:54;100906.09;;;26.27;100.00
60015;BME280;45867;52.480;6.056;2023-08-24T15:26:20;100913.69;;;26.15;100.00
60015;BME280;45867;52.480;6.056;2023-08-24T15:29:06;100911.03;;;25.88;100.00
60015;BME280;45867;52.480;6.056;2023-08-24T15:31:32;100890.19;;;25.96;100.00
60015;BME280;45867;52.480;6.056;2023-08-24T15:33:59;100888.69;;;25.98;100.00
60015;BME280;45867;52.480;6.056;2023-08-24T15:36:26;100877.53;;;26.07;100.00
60015;BME280;45867;52.480;6.056;2023-08-24T15:38:52;100866.09;;;25.90;100.00
60015;BME280;45867;52.480;6.056;2023-08-24T15:41:19;100859.56;;;25.95;100.00
60015;BME280;45867;52.480;6.056;2023-08-24T15:43:45;100838.97;;;25.94;100.00
60015;BME280;45867;52.480;6.056;2023-08-24T15:46:12;100806.56;;;26.08;100.00
60015;BME280;45867;52.480;6.056;2023-08-24T15:48:38;100809.56;;;26.00;100.00
60015;BME280;45867;52.480;6.056;2023-08-24T15:51:05;100791.84;;;26.13;100.00
60015;BME280;45867;52.480;6.056;2023-08-24T15:53:32;100770.00;;;26.02;100.00
60015;BME280;45867;52.480;6.056;2023-08-24T15:55:58;100801.28;;;25.89;100.00
60015;BME280;45867;52.480;6.056;2023-08-24T15:58:24;100790.84;;;25.91;100.00
60015;BME280;45867;52.480;6.056;2023-08-24T16:00:51;100784.06;;;25.78;100.00
60015;BME280;45867;52.480;6.056;2023-08-24T16:03:18;100760.56;;;25.55;100.00
60015;BME280;45867;52.480;6.056;2023-08-24T16:05:44;100709.75;;;25.52;100.00
60015;BME280;45867;52.480;6.056;2023-08-24T16:08:11;100639.97;;;25.53;100.00
60015;BME280;45867;52.480;6.056;2023-08-24T16:10:38;100640.16;;;25.71;100.00
60015;BME280;45867;52.480;6.056;2023-08-24T16:13:04;100616.19;;;25.80;100.00
60015;BME280;45867;52.480;6.056;2023-08-24T16:15:31;100604.59;;;25.83;100.00
60015;BME280;45867;52.480;6.056;2023-08-24T16:17:57;100607.75;;;25.85;100.00
60015;BME280;45867;52.480;6.056;2023-08-24T16:20:24;100610.97;;;25.98;100.00
60015;BME280;45867;52.480;6.056;2023-08-24T16:22:50;100612.50;;;25.95;100.00
60015;BME280;45867;52.480;6.056;2023-08-24T16:25:16;100599.56;;;25.81;100.00
60015;BME280;45867;52.480;6.056;2023-08-24T16:27:43;100576.25;;;25.77;100.00
60015;BME280;45867;52.480;6.056;2023-08-24T16:30:10;100575.91;;;25.82;100.00
60015;BME280;45867;52.480;6.056;2023-08-24T16:32:36;100552.13;;;25.68;100.00
60015;BME280;45867;52.480;6.056;2023-08-24T16:35:03;100526.50;;;25.62;100.00
60015;BME280;45867;52.480;6.056;2023-08-24T16:37:29;100417.66;;;25.19;100.00
60015;BME280;45867;52.480;6.056;2023-08-24T16:39:59;100305.22;;;25.09;100.00
60015;BME280;45867;52.480;6.056;2023-08-24T16:42:25;100260.06;;;25.28;100.00
60015;BME280;45867;52.480;6.056;2023-08-24T16:44:52;100200.25;;;25.02;100.00
60015;BME280;45867;52.480;6.056;2023-08-24T16:47:18;100162.31;;;25.10;100.00
60015;BME280;45867;52.480;6.056;2023-08-24T16:49:45;100128.59;;;25.03;100.00
60015;BME280;45867;52.480;6.056;2023-08-24T16:52:11;100081.63;;;24.74;100.00
60015;BME280;45867;52.480;6.056;2023-08-24T16:54:37;99998.41;;;24.71;100.00